PWSweather.com
Personal Weather Stations
Station Observations
KAZTUCSO57
Countryside Manor, Tucson, AZ 85742

Countryside ManorTucson, AZ 85742

Lat: 32.3692, Lon: -111.066

Elevation: 2307

Station Type: Davis VP Pro+ 6163

http://frogville.us

Latest ConditionsUpdated 4:00:00 PM MST Sunday, May 24, 2015
Currently Today's Max Today's Min Today's Average
Temperature 83.9°F28.8°C 86.3°F30.2°C 54.2°F12.3°C 70.0°F21.1°C
Dew Point 35.8°F2.1°C 40.4°F4.7°C 33.5°F0.8°C 37.7°F3.2°C
Winds 3.2 mph W5.1 kmh W 5.3 mph SW8.5 kmh SW - 1.0 mph 1.6 kmh
Wind Gusts 7.0 mph11.3 kmh 8.0 mph12.9 kmh - -
Humidity 18% 54% 16% 33%
Pressure 29.82 in1009.8 mb 29.94 in1013.9 mb 29.82 in1009.8 mb -
Hour Temp Dew Point Humidity Winds Wind Gusts Pressure Precip Precip Rate Daily Precip Total
04:00 PM 83.9°F28.8°C 35.8°F2.1°C 18% 3.2 mph W5.1 kmh W 7.0 mph11.3 kmh 29.82 in1009.8 mb - 0.00 in0.0 mm 0.00 in0.0 mm
03:50 PM 83.7°F28.7°C 35.7°F2.1°C 18% 3.4 mph NW5.5 kmh NW 4.0 mph6.4 kmh 29.82 in1009.8 mb - 0.00 in0.0 mm 0.00 in0.0 mm
03:40 PM 83.7°F28.7°C 35.7°F2.1°C 18% 2.9 mph WSW4.7 kmh WSW 6.0 mph9.7 kmh 29.82 in1009.8 mb - 0.00 in0.0 mm 0.00 in0.0 mm
03:30 PM 83.6°F28.7°C 35.6°F2.0°C 18% 0.4 mph WNW0.6 kmh WNW 4.0 mph6.4 kmh 29.82 in1009.8 mb - 0.00 in0.0 mm 0.00 in0.0 mm
03:20 PM 83.9°F28.8°C 34.4°F1.3°C 17% 2.0 mph ENE3.2 kmh ENE 4.0 mph6.4 kmh 29.83 in1010.2 mb - 0.00 in0.0 mm 0.00 in0.0 mm
03:10 PM 84.6°F29.2°C 35.0°F1.7°C 17% 3.3 mph NNE5.3 kmh NNE 6.0 mph9.7 kmh 29.83 in1010.2 mb - 0.00 in0.0 mm 0.00 in0.0 mm
03:00 PM 84.9°F29.4°C 35.2°F1.8°C 17% 1.9 mph N3.1 kmh N 2.0 mph3.2 kmh 29.83 in1010.2 mb - 0.00 in0.0 mm 0.00 in0.0 mm
02:50 PM 84.3°F29.1°C 36.2°F2.3°C 18% 1.2 mph WNW1.9 kmh WNW 3.0 mph4.8 kmh 29.83 in1010.2 mb - 0.00 in0.0 mm 0.00 in0.0 mm
02:40 PM 82.9°F28.3°C 35.0°F1.7°C 18% 1.1 mph WNW1.8 kmh WNW 2.0 mph3.2 kmh 29.83 in1010.2 mb - 0.00 in0.0 mm 0.00 in0.0 mm
02:30 PM 83.1°F28.4°C 33.8°F1.0°C 17% 0.8 mph WSW1.3 kmh WSW 2.0 mph3.2 kmh 29.84 in1010.5 mb - 0.00 in0.0 mm 0.00 in0.0 mm
02:20 PM 84.6°F29.2°C 33.5°F0.8°C 16% 2.7 mph E4.3 kmh E 3.0 mph4.8 kmh 29.84 in1010.5 mb - 0.00 in0.0 mm 0.00 in0.0 mm
02:10 PM 85.9°F29.9°C 34.5°F1.4°C 16% 2.3 mph SW3.7 kmh SW 5.0 mph8.0 kmh 29.85 in1010.8 mb - 0.00 in0.0 mm 0.00 in0.0 mm
02:00 PM 86.3°F30.2°C 36.3°F2.4°C 17% 2.5 mph SW4.0 kmh SW 8.0 mph12.9 kmh 29.86 in1011.2 mb - 0.00 in0.0 mm 0.00 in0.0 mm
01:50 PM 85.7°F29.8°C 35.9°F2.2°C 17% 5.3 mph SW8.5 kmh SW 8.0 mph12.9 kmh 29.86 in1011.2 mb - 0.00 in0.0 mm 0.00 in0.0 mm
01:40 PM 85.0°F29.4°C 36.7°F2.6°C 18% 1.7 mph WNW2.7 kmh WNW 4.0 mph6.4 kmh 29.86 in1011.2 mb - 0.00 in0.0 mm 0.00 in0.0 mm
01:30 PM 83.8°F28.8°C 35.8°F2.1°C 18% 3.1 mph W5.0 kmh W 6.0 mph9.7 kmh 29.86 in1011.2 mb - 0.00 in0.0 mm 0.00 in0.0 mm
01:20 PM 82.7°F28.2°C 37.5°F3.1°C 20% 3.3 mph N5.3 kmh N 7.0 mph11.3 kmh 29.86 in1011.2 mb - 0.00 in0.0 mm 0.00 in0.0 mm
01:10 PM 83.1°F28.4°C 36.5°F2.5°C 19% 0.2 mph ENE0.3 kmh ENE 3.0 mph4.8 kmh 29.87 in1011.5 mb - 0.00 in0.0 mm 0.00 in0.0 mm
01:00 PM 82.8°F28.2°C 36.3°F2.4°C 19% 1.0 mph NE1.6 kmh NE 2.0 mph3.2 kmh 29.87 in1011.5 mb - 0.00 in0.0 mm 0.00 in0.0 mm
12:50 PM 82.7°F28.2°C 37.5°F3.1°C 20% 2.8 mph NE4.5 kmh NE 4.0 mph6.4 kmh 29.88 in1011.9 mb - 0.00 in0.0 mm 0.00 in0.0 mm
12:40 PM 82.3°F27.9°C 37.2°F2.9°C 20% 1.2 mph NW1.9 kmh NW 2.0 mph3.2 kmh 29.88 in1011.9 mb - 0.00 in0.0 mm 0.00 in0.0 mm
12:30 PM 81.2°F27.3°C 37.6°F3.1°C 21% 1.2 mph SW1.9 kmh SW 2.0 mph3.2 kmh 29.88 in1011.9 mb - 0.00 in0.0 mm 0.00 in0.0 mm
12:20 PM 81.1°F27.3°C 37.5°F3.1°C 21% 1.4 mph NW2.3 kmh NW 3.0 mph4.8 kmh 29.89 in1012.2 mb - 0.00 in0.0 mm 0.00 in0.0 mm
12:10 PM 80.9°F27.2°C 37.3°F2.9°C 21% 1.3 mph NNW2.1 kmh NNW 3.0 mph4.8 kmh 29.89 in1012.2 mb - 0.00 in0.0 mm 0.00 in0.0 mm
12:00 PM 80.9°F27.2°C 38.5°F3.6°C 22% 0.1 mph NW0.2 kmh NW 1.0 mph1.6 kmh 29.90 in1012.5 mb - 0.00 in0.0 mm 0.00 in0.0 mm
11:50 AM 80.5°F26.9°C 38.1°F3.4°C 22% 0.6 mph W1.0 kmh W 1.0 mph1.6 kmh 29.90 in1012.5 mb - 0.00 in0.0 mm 0.00 in0.0 mm
11:40 AM 82.3°F27.9°C 38.4°F3.6°C 21% 3.0 mph SW4.8 kmh SW 7.0 mph11.3 kmh 29.90 in1012.5 mb - 0.00 in0.0 mm 0.00 in0.0 mm
11:30 AM 81.5°F27.5°C 39.0°F3.9°C 22% 2.6 mph SW4.2 kmh SW 5.0 mph8.0 kmh 29.91 in1012.9 mb - 0.00 in0.0 mm 0.00 in0.0 mm
11:20 AM 80.9°F27.2°C 38.4°F3.6°C 22% 0.9 mph NE1.4 kmh NE 3.0 mph4.8 kmh 29.91 in1012.9 mb - 0.00 in0.0 mm 0.00 in0.0 mm
11:10 AM 80.5°F26.9°C 38.1°F3.4°C 22% 2.1 mph SW3.4 kmh SW 6.0 mph9.7 kmh 29.91 in1012.9 mb - 0.00 in0.0 mm 0.00 in0.0 mm
11:00 AM 80.0°F26.7°C 38.9°F3.8°C 23% 0.9 mph SW1.4 kmh SW 6.0 mph9.7 kmh 29.91 in1012.9 mb - 0.00 in0.0 mm 0.00 in0.0 mm
10:50 AM 80.9°F27.2°C 38.5°F3.6°C 22% 1.5 mph SW2.4 kmh SW 5.0 mph8.0 kmh 29.91 in1012.9 mb - 0.00 in0.0 mm 0.00 in0.0 mm
10:40 AM 80.2°F26.8°C 39.1°F3.9°C 23% 1.7 mph NNE2.7 kmh NNE 5.0 mph8.0 kmh 29.92 in1013.2 mb - 0.00 in0.0 mm 0.00 in0.0 mm
10:30 AM 79.8°F26.6°C 38.7°F3.7°C 23% 3.1 mph W5.0 kmh W 5.0 mph8.0 kmh 29.92 in1013.2 mb - 0.00 in0.0 mm 0.00 in0.0 mm
10:20 AM 78.7°F25.9°C 38.8°F3.8°C 24% 1.7 mph ENE2.7 kmh ENE 3.0 mph4.8 kmh 29.92 in1013.2 mb - 0.00 in0.0 mm 0.00 in0.0 mm
10:10 AM 77.8°F25.4°C 38.1°F3.4°C 24% 0.8 mph SE1.3 kmh SE 2.0 mph3.2 kmh 29.92 in1013.2 mb - 0.00 in0.0 mm 0.00 in0.0 mm
10:00 AM 76.4°F24.7°C 39.0°F3.9°C 26% 0.1 mph NE0.2 kmh NE 2.0 mph3.2 kmh 29.92 in1013.2 mb - 0.00 in0.0 mm 0.00 in0.0 mm
09:50 AM 76.1°F24.5°C 38.7°F3.7°C 26% 2.5 mph NE4.0 kmh NE 4.0 mph6.4 kmh 29.93 in1013.5 mb - 0.00 in0.0 mm 0.00 in0.0 mm
09:40 AM 76.8°F24.9°C 39.3°F4.1°C 26% 1.0 mph E1.6 kmh E 2.0 mph3.2 kmh 29.93 in1013.5 mb - 0.00 in0.0 mm 0.00 in0.0 mm
09:30 AM 76.4°F24.7°C 39.0°F3.9°C 26% Calm Calm -- 29.93 in1013.5 mb - 0.00 in0.0 mm 0.00 in0.0 mm
09:20 AM 75.9°F24.4°C 39.5°F4.2°C 27% 0.2 mph E0.3 kmh E 1.0 mph1.6 kmh 29.93 in1013.5 mb - 0.00 in0.0 mm 0.00 in0.0 mm
09:10 AM 75.1°F23.9°C 39.7°F4.3°C 28% 1.2 mph SW1.9 kmh SW 2.0 mph3.2 kmh 29.94 in1013.9 mb - 0.00 in0.0 mm 0.00 in0.0 mm
09:00 AM 73.7°F23.2°C 39.4°F4.1°C 29% 0.5 mph E0.8 kmh E 1.0 mph1.6 kmh 29.93 in1013.5 mb - 0.00 in0.0 mm 0.00 in0.0 mm
08:50 AM 73.1°F22.8°C 39.8°F4.3°C 30% 1.4 mph S2.3 kmh S 2.0 mph3.2 kmh 29.93 in1013.5 mb - 0.00 in0.0 mm 0.00 in0.0 mm
08:40 AM 72.2°F22.3°C 39.9°F4.4°C 31% 1.0 mph SSE1.6 kmh SSE 2.0 mph3.2 kmh 29.93 in1013.5 mb - 0.00 in0.0 mm 0.00 in0.0 mm
08:30 AM 72.2°F22.3°C 39.8°F4.3°C 31% 1.5 mph ENE2.4 kmh ENE 3.0 mph4.8 kmh 29.93 in1013.5 mb - 0.00 in0.0 mm 0.00 in0.0 mm
08:20 AM 71.7°F22.1°C 39.4°F4.1°C 31% 0.7 mph S1.1 kmh S 1.0 mph1.6 kmh 29.93 in1013.5 mb - 0.00 in0.0 mm 0.00 in0.0 mm
08:10 AM 70.8°F21.6°C 40.3°F4.6°C 33% 1.3 mph SE2.1 kmh SE 4.0 mph6.4 kmh 29.93 in1013.5 mb - 0.00 in0.0 mm 0.00 in0.0 mm
08:00 AM 70.1°F21.2°C 39.6°F4.2°C 33% 1.3 mph ESE2.1 kmh ESE 1.0 mph1.6 kmh 29.93 in1013.5 mb - 0.00 in0.0 mm 0.00 in0.0 mm
07:50 AM 69.1°F20.6°C 39.5°F4.2°C 34% 1.3 mph ESE2.1 kmh ESE 3.0 mph4.8 kmh 29.93 in1013.5 mb - 0.00 in0.0 mm 0.00 in0.0 mm
07:40 AM 67.7°F19.8°C 39.1°F3.9°C 35% 1.2 mph ESE1.9 kmh ESE 3.0 mph4.8 kmh 29.93 in1013.5 mb - 0.00 in0.0 mm 0.00 in0.0 mm
07:30 AM 66.7°F19.3°C 39.6°F4.2°C 37% 0.5 mph SE0.8 kmh SE 2.0 mph3.2 kmh 29.93 in1013.5 mb - 0.00 in0.0 mm 0.00 in0.0 mm
07:20 AM 65.6°F18.7°C 40.0°F4.4°C 39% 0.8 mph SE1.3 kmh SE 3.0 mph4.8 kmh 29.93 in1013.5 mb - 0.00 in0.0 mm 0.00 in0.0 mm
07:10 AM 64.3°F17.9°C 40.1°F4.5°C 41% 0.2 mph E0.3 kmh E 1.0 mph1.6 kmh 29.93 in1013.5 mb - 0.00 in0.0 mm 0.00 in0.0 mm
07:00 AM 63.2°F17.3°C 40.4°F4.7°C 43% 0.7 mph SE1.1 kmh SE 2.0 mph3.2 kmh 29.93 in1013.5 mb - 0.00 in0.0 mm 0.00 in0.0 mm
06:50 AM 62.0°F16.7°C 39.8°F4.3°C 44% 0.9 mph SSE1.4 kmh SSE 3.0 mph4.8 kmh 29.93 in1013.5 mb - 0.00 in0.0 mm 0.00 in0.0 mm
06:40 AM 60.0°F15.6°C 39.7°F4.3°C 47% 0.5 mph ESE0.8 kmh ESE 2.0 mph3.2 kmh 29.93 in1013.5 mb - 0.00 in0.0 mm 0.00 in0.0 mm
06:30 AM 58.2°F14.6°C 39.6°F4.2°C 50% 0.3 mph E0.5 kmh E 1.0 mph1.6 kmh 29.93 in1013.5 mb - 0.00 in0.0 mm 0.00 in0.0 mm
06:20 AM 56.0°F13.3°C 38.7°F3.7°C 52% Calm Calm -- 29.93 in1013.5 mb - 0.00 in0.0 mm 0.00 in0.0 mm
06:10 AM 55.1°F12.8°C 38.3°F3.5°C 53% Calm Calm -- 29.92 in1013.2 mb - 0.00 in0.0 mm 0.00 in0.0 mm
06:00 AM 54.6°F12.6°C 38.3°F3.5°C 54% 1.1 mph NE1.8 kmh NE 2.0 mph3.2 kmh 29.92 in1013.2 mb - 0.00 in0.0 mm 0.00 in0.0 mm
05:50 AM 54.2°F12.3°C 37.9°F3.3°C 54% 0.8 mph NE1.3 kmh NE 1.0 mph1.6 kmh 29.92 in1013.2 mb - 0.00 in0.0 mm 0.00 in0.0 mm
05:40 AM 54.2°F12.3°C 37.4°F3.0°C 53% 0.5 mph NE0.8 kmh NE 1.0 mph1.6 kmh 29.92 in1013.2 mb - 0.00 in0.0 mm 0.00 in0.0 mm
05:30 AM 54.4°F12.4°C 37.6°F3.1°C 53% 1.2 mph NE1.9 kmh NE 3.0 mph4.8 kmh 29.91 in1012.9 mb - 0.00 in0.0 mm 0.00 in0.0 mm
05:20 AM 54.6°F12.6°C 37.3°F2.9°C 52% 0.1 mph E0.2 kmh E 1.0 mph1.6 kmh 29.92 in1013.2 mb - 0.00 in0.0 mm 0.00 in0.0 mm
05:10 AM 54.9°F12.7°C 37.6°F3.1°C 52% 0.1 mph E0.2 kmh E 1.0 mph1.6 kmh 29.91 in1012.9 mb - 0.00 in0.0 mm 0.00 in0.0 mm
05:00 AM 55.5°F13.1°C 38.1°F3.4°C 52% Calm Calm -- 29.91 in1012.9 mb - 0.00 in0.0 mm 0.00 in0.0 mm
04:50 AM 56.0°F13.3°C 38.1°F3.4°C 51% Calm Calm -- 29.91 in1012.9 mb - 0.00 in0.0 mm 0.00 in0.0 mm
04:40 AM 56.2°F13.4°C 37.8°F3.2°C 50% 0.2 mph NE0.3 kmh NE -- 29.91 in1012.9 mb - 0.00 in0.0 mm 0.00 in0.0 mm
04:30 AM 56.8°F13.8°C 37.3°F2.9°C 48% 0.5 mph E0.8 kmh E 2.0 mph3.2 kmh 29.91 in1012.9 mb - 0.00 in0.0 mm 0.00 in0.0 mm
04:20 AM 57.2°F14.0°C 37.7°F3.2°C 48% 0.5 mph ESE0.8 kmh ESE 1.0 mph1.6 kmh 29.91 in1012.9 mb - 0.00 in0.0 mm 0.00 in0.0 mm
04:10 AM 57.6°F14.2°C 37.5°F3.1°C 47% 0.1 mph SSE0.2 kmh SSE 1.0 mph1.6 kmh 29.91 in1012.9 mb - 0.00 in0.0 mm 0.00 in0.0 mm
04:00 AM 57.8°F14.3°C 37.7°F3.2°C 47% Calm Calm 1.0 mph1.6 kmh 29.91 in1012.9 mb - 0.00 in0.0 mm 0.00 in0.0 mm
03:50 AM 58.0°F14.4°C 38.4°F3.6°C 48% Calm Calm -- 29.91 in1012.9 mb - 0.00 in0.0 mm 0.00 in0.0 mm
03:40 AM 58.2°F14.6°C 39.7°F4.3°C 50% Calm Calm -- 29.91 in1012.9 mb - 0.00 in0.0 mm 0.00 in0.0 mm
03:30 AM 58.4°F14.7°C 38.7°F3.7°C 48% 0.3 mph NE0.5 kmh NE 2.0 mph3.2 kmh 29.91 in1012.9 mb - 0.00 in0.0 mm 0.00 in0.0 mm
03:20 AM 58.4°F14.7°C 38.8°F3.8°C 48% Calm Calm -- 29.91 in1012.9 mb - 0.00 in0.0 mm 0.00 in0.0 mm
03:10 AM 58.5°F14.7°C 38.9°F3.8°C 48% 0.4 mph NE0.6 kmh NE 1.0 mph1.6 kmh 29.92 in1013.2 mb - 0.00 in0.0 mm 0.00 in0.0 mm
03:00 AM 58.8°F14.9°C 38.6°F3.7°C 47% 0.8 mph NE1.3 kmh NE 2.0 mph3.2 kmh 29.92 in1013.2 mb - 0.00 in0.0 mm 0.00 in0.0 mm
02:50 AM 59.3°F15.2°C 38.5°F3.6°C 46% 0.8 mph N1.3 kmh N 2.0 mph3.2 kmh 29.92 in1013.2 mb - 0.00 in0.0 mm 0.00 in0.0 mm
02:40 AM 59.9°F15.5°C 38.5°F3.6°C 45% 0.9 mph N1.4 kmh N 2.0 mph3.2 kmh 29.92 in1013.2 mb - 0.00 in0.0 mm 0.00 in0.0 mm
02:30 AM 60.6°F15.9°C 37.4°F3.0°C 42% Calm Calm -- 29.92 in1013.2 mb - 0.00 in0.0 mm 0.00 in0.0 mm
02:20 AM 60.9°F16.1°C 37.0°F2.8°C 41% Calm Calm -- 29.92 in1013.2 mb - 0.00 in0.0 mm 0.00 in0.0 mm
02:10 AM 61.1°F16.2°C 37.2°F2.9°C 41% Calm Calm -- 29.92 in1013.2 mb - 0.00 in0.0 mm 0.00 in0.0 mm
02:00 AM 61.1°F16.2°C 37.2°F2.9°C 41% 0.4 mph N0.6 kmh N 2.0 mph3.2 kmh 29.93 in1013.5 mb - 0.00 in0.0 mm 0.00 in0.0 mm
01:50 AM 61.1°F16.2°C 36.6°F2.6°C 40% Calm Calm -- 29.93 in1013.5 mb - 0.00 in0.0 mm 0.00 in0.0 mm
01:40 AM 61.0°F16.1°C 36.5°F2.5°C 40% 1.4 mph N2.3 kmh N 2.0 mph3.2 kmh 29.93 in1013.5 mb - 0.00 in0.0 mm 0.00 in0.0 mm
01:30 AM 60.9°F16.1°C 36.4°F2.4°C 40% 0.3 mph N0.5 kmh N 1.0 mph1.6 kmh 29.93 in1013.5 mb - 0.00 in0.0 mm 0.00 in0.0 mm
01:20 AM 60.8°F16.0°C 35.6°F2.0°C 39% 0.9 mph N1.4 kmh N 1.0 mph1.6 kmh 29.93 in1013.5 mb - 0.00 in0.0 mm 0.00 in0.0 mm
01:10 AM 60.7°F15.9°C 35.6°F2.0°C 39% 0.2 mph N0.3 kmh N 1.0 mph1.6 kmh 29.93 in1013.5 mb - 0.00 in0.0 mm 0.00 in0.0 mm
01:00 AM 60.8°F16.0°C 36.9°F2.7°C 41% 0.4 mph N0.6 kmh N 2.0 mph3.2 kmh 29.93 in1013.5 mb - 0.00 in0.0 mm 0.00 in0.0 mm
12:50 AM 60.9°F16.1°C 37.0°F2.8°C 41% Calm Calm -- 29.94 in1013.9 mb - 0.00 in0.0 mm 0.00 in0.0 mm
12:40 AM 61.1°F16.2°C 37.2°F2.9°C 41% Calm Calm -- 29.94 in1013.9 mb - 0.00 in0.0 mm 0.00 in0.0 mm
12:30 AM 61.2°F16.2°C 37.3°F2.9°C 41% Calm Calm 1.0 mph1.6 kmh 29.94 in1013.9 mb - 0.00 in0.0 mm 0.00 in0.0 mm
12:20 AM 61.7°F16.5°C 37.1°F2.8°C 40% 1.1 mph N1.8 kmh N 2.0 mph3.2 kmh 29.94 in1013.9 mb - 0.00 in0.0 mm 0.00 in0.0 mm
12:10 AM 62.2°F16.8°C 36.3°F2.4°C 38% Calm Calm 1.0 mph1.6 kmh 29.94 in1013.9 mb - 0.00 in0.0 mm 0.00 in0.0 mm
12:00 AM 62.6°F17.0°C 36.6°F2.6°C 38% Calm Calm -- 29.94 in1013.9 mb - 0.00 in0.0 mm 0.00 in0.0 mm